Sti Osceola — V7IW3 — position and weather

sailwx.info

Track history (hours):
 
Tides and Currents Weather Stations Pressure Air Temp Water Temp Dewpoint Dewpoint Depression Visibility Wind Speed Wind Dir Waves Ship Positions

Sti Osceola

Last reported at 2018-Feb-16 12:37 UTC. Time now 2018-Feb-19 08:23 UTC.
Position N 48°53' W 006°06'.

Length 184 m; draft 11.8 m.

Type: Tanker. MMSI: 538006005.

Date/timePositionNaut miles runAvg speedWind from/ knotsBaromVisibWave heightAir tempDewpointWater temp
2018-Feb-16 12:37N 48°53' W 006°06'312.4
2018-Feb-16 12:24N 48°55' W 006°02'11811.6
2018-Feb-16 02:14N 49°50' W 003°22'314.0
2018-Feb-16 02:00N 49°52' W 003°18'714.3
2018-Feb-16 01:30N 49°55' W 003°07'714.5
2018-Feb-16 01:00N 49°58' W 002°58'714.3
2018-Feb-16 00:31N 50°01' W 002°47'713.9
2018-Feb-16 00:00N 50°03' W 002°37'2512.1
2018-Feb-15 21:56N 50°09' W 001°59'410.1
2018-Feb-15 21:30N 50°10' W 001°52'5 9.5
2018-Feb-15 21:00N 50°10' W 001°45'5 9.1
2018-Feb-15 20:30N 50°11' W 001°38'5 9.3
2018-Feb-15 20:00N 50°12' W 001°31'5 9.3
2018-Feb-15 19:30N 50°14' W 001°24'5 9.7
2018-Feb-15 19:00N 50°15' W 001°17'3912.7
2018-Feb-15 15:59N 50°28' W 000°20'714.3
2018-Feb-15 15:29N 50°30' W 000°09'714.3
2018-Feb-15 15:00N 50°32' E 000°01'714.3
2018-Feb-15 14:30N 50°33' E 000°12'713.9
2018-Feb-15 14:00N 50°35' E 000°23'713.5
2018-Feb-15 13:30N 50°37' E 000°33'612.7
2018-Feb-15 13:00N 50°40' E 000°41'612.3
2018-Feb-15 12:30N 50°44' E 000°49'611.6
2018-Feb-15 12:00N 50°48' E 000°56'611.1
2018-Feb-15 11:30N 50°51' E 001°03'611.1
2018-Feb-15 11:00N 50°55' E 001°10'611.0
2018-Feb-15 10:26N 50°59' E 001°17'510.8
2018-Feb-15 10:00N 51°02' E 001°23'611.7
2018-Feb-15 09:30N 51°06' E 001°30'612.8
2018-Feb-15 09:00N 51°09' E 001°38'713.5
2018-Feb-15 08:30N 51°14' E 001°47'714.2
2018-Feb-15 08:00N 51°20' E 001°52'714.3
2018-Feb-15 07:31N 51°26' E 001°57'714.1
2018-Feb-15 07:00N 51°31' E 002°05'713.1
2018-Feb-15 06:30N 51°36' E 002°12'612.6
2018-Feb-15 06:00N 51°41' E 002°19'612.1
2018-Feb-15 05:31N 51°45' E 002°26'23210.3
2018-Feb-14 07:01N 55°10' E 005°28'112.4
2018-Feb-14 06:57N 55°11' E 005°29'612.3
2018-Feb-14 06:30N 55°16' E 005°34'612.3
2018-Feb-14 06:00N 55°21' E 005°38'21411.4
2018-Feb-13 11:17N 57°48' E 010°22'312.5
2018-Feb-13 11:00N 57°48' E 010°29'510.9
2018-Feb-13 10:30N 57°49' E 010°39'510.5
2018-Feb-13 10:00N 57°46' E 010°47'3 7.0
2018-Feb-13 09:30N 57°43' E 010°44'3 6.1
2018-Feb-13 09:01N 57°41' E 010°38'0 0.2
2018-Feb-13 08:24N 57°41' E 010°39'0 0.0
2018-Feb-13 07:54N 57°41' E 010°39'0 0.1
2018-Feb-13 07:30N 57°41' E 010°39'0 0.0
2018-Feb-13 06:57N 57°41' E 010°39'0 0.1
2018-Feb-13 06:30N 57°41' E 010°39'0 0.0
2018-Feb-13 06:00N 57°41' E 010°39'0 0.0
2018-Feb-13 05:30N 57°41' E 010°39'0 0.0
2018-Feb-13 04:48N 57°41' E 010°39'0 0.0
2018-Feb-13 04:30N 57°41' E 010°39'0 0.0
2018-Feb-13 03:42N 57°41' E 010°39'0 0.1
2018-Feb-13 03:30N 57°41' E 010°39'0 0.0
2018-Feb-13 02:57N 57°41' E 010°39'0 0.0
2018-Feb-13 02:21N 57°41' E 010°39'0 0.0
2018-Feb-13 02:00N 57°41' E 010°39'0 0.0
2018-Feb-13 01:30N 57°41' E 010°39'0 0.0
2018-Feb-13 01:00N 57°41' E 010°39'0 0.0
2018-Feb-13 00:30N 57°41' E 010°39'0 0.0
2018-Feb-12 23:59N 57°41' E 010°39'0 0.0
2018-Feb-12 23:30N 57°41' E 010°39'0 0.0
2018-Feb-12 23:00N 57°41' E 010°39'0 0.0
2018-Feb-12 22:30N 57°41' E 010°39'0 0.0
2018-Feb-12 22:00N 57°41' E 010°39'0 0.6
2018-Feb-12 21:30N 57°42' E 010°39'3 6.4
2018-Feb-12 21:00N 57°41' E 010°44'5 9.5
2018-Feb-12 20:30N 57°37' E 010°50'611.9
2018-Feb-12 20:00N 57°35' E 011°00'612.5
2018-Feb-12 19:30N 57°32' E 011°11'612.6
2018-Feb-12 19:00N 57°29' E 011°21'611.4
2018-Feb-12 18:30N 57°25' E 011°28'612.1
2018-Feb-12 18:00N 57°19' E 011°32'611.8
2018-Feb-12 17:30N 57°14' E 011°36'511.0
2018-Feb-12 17:00N 57°08' E 011°39'510.7
2018-Feb-12 16:30N 57°03' E 011°42'10711.0
2018-Feb-12 06:48N 55°18' E 011°03'413.3
2018-Feb-12 06:30N 55°15' E 011°05'611.5
2018-Feb-12 06:00N 55°10' E 011°01'713.1
2018-Feb-12 05:30N 55°03' E 011°00'713.7
2018-Feb-12 05:01N 54°57' E 010°55'714.6
2018-Feb-12 04:31N 54°50' E 010°50'714.3
2018-Feb-12 04:00N 54°43' E 010°47'510.7
2018-Feb-12 03:30N 54°39' E 010°51'612.0
2018-Feb-12 03:00N 54°36' E 011°01'612.2
2018-Feb-12 02:30N 54°36' E 011°11'612.8
2018-Feb-12 02:00N 54°33' E 011°21'612.3
2018-Feb-12 01:30N 54°30' E 011°31'612.2
2018-Feb-12 01:00N 54°28' E 011°40'611.8
2018-Feb-12 00:30N 54°27' E 011°50'611.8
2018-Feb-12 00:00N 54°27' E 012°00'611.7
2018-Feb-11 23:30N 54°27' E 012°11'7411.2
2018-Feb-11 16:51N 55°03' E 014°03'511.2
2018-Feb-11 16:24N 55°07' E 014°09'611.3
2018-Feb-11 15:53N 55°12' E 014°15'411.3
2018-Feb-11 15:30N 55°15' E 014°20'611.5
2018-Feb-11 15:00N 55°20' E 014°26'611.5
2018-Feb-11 14:30N 55°24' E 014°33'611.7
2018-Feb-11 13:59N 55°28' E 014°41'612.4
2018-Feb-11 13:30N 55°30' E 014°51'612.4
2018-Feb-11 12:59N 55°33' E 015°00'612.4
2018-Feb-11 12:30N 55°36' E 015°10'612.4
2018-Feb-11 12:00N 55°38' E 015°20'612.3
2018-Feb-11 11:30N 55°40' E 015°31'612.3
2018-Feb-11 11:00N 55°42' E 015°41'612.3
2018-Feb-11 10:30N 55°43' E 015°52'612.6
2018-Feb-11 10:00N 55°45' E 016°03'612.8
2018-Feb-11 09:30N 55°46' E 016°14'612.5
2018-Feb-11 09:00N 55°48' E 016°24'612.3
2018-Feb-11 08:30N 55°49' E 016°35'612.2
2018-Feb-11 08:00N 55°51' E 016°46'29112.3
2018-Feb-10 08:22N 59°31' E 022°40'512.5
2018-Feb-10 07:59N 59°33' E 022°49'1112.8
2018-Feb-10 07:08N 59°30' E 023°10'213.0
2018-Feb-10 07:00N 59°29' E 023°13'613.1
2018-Feb-10 06:30N 59°28' E 023°26'  
Track history (hours):
 
Tides and Currents Weather Stations Pressure Air Temp Water Temp Dewpoint Dewpoint Depression Visibility Wind Speed Wind Dir Waves Ship Positions

Sti Osceola

Last reported at 2018-Feb-16 12:37 UTC. Time now 2018-Feb-19 08:23 UTC.
Position N 48°53' W 006°06'.

Length 184 m; draft 11.8 m.

Type: Tanker. MMSI: 538006005.

Date/timePositionNaut miles runAvg speedWind from/ knotsBaromVisibWave heightAir tempDewpointWater temp
2018-Feb-16 12:37N 48°53' W 006°06'312.4
2018-Feb-16 12:24N 48°55' W 006°02'11811.6
2018-Feb-16 02:14N 49°50' W 003°22'314.0
2018-Feb-16 02:00N 49°52' W 003°18'714.3
2018-Feb-16 01:30N 49°55' W 003°07'714.5
2018-Feb-16 01:00N 49°58' W 002°58'714.3
2018-Feb-16 00:31N 50°01' W 002°47'713.9
2018-Feb-16 00:00N 50°03' W 002°37'2512.1
2018-Feb-15 21:56N 50°09' W 001°59'410.1
2018-Feb-15 21:30N 50°10' W 001°52'5 9.5
2018-Feb-15 21:00N 50°10' W 001°45'5 9.1
2018-Feb-15 20:30N 50°11' W 001°38'5 9.3
2018-Feb-15 20:00N 50°12' W 001°31'5 9.3
2018-Feb-15 19:30N 50°14' W 001°24'5 9.7
2018-Feb-15 19:00N 50°15' W 001°17'3912.7
2018-Feb-15 15:59N 50°28' W 000°20'714.3
2018-Feb-15 15:29N 50°30' W 000°09'714.3
2018-Feb-15 15:00N 50°32' E 000°01'714.3
2018-Feb-15 14:30N 50°33' E 000°12'713.9
2018-Feb-15 14:00N 50°35' E 000°23'713.5
2018-Feb-15 13:30N 50°37' E 000°33'612.7
2018-Feb-15 13:00N 50°40' E 000°41'612.3
2018-Feb-15 12:30N 50°44' E 000°49'611.6
2018-Feb-15 12:00N 50°48' E 000°56'611.1
2018-Feb-15 11:30N 50°51' E 001°03'611.1
2018-Feb-15 11:00N 50°55' E 001°10'611.0
2018-Feb-15 10:26N 50°59' E 001°17'510.8
2018-Feb-15 10:00N 51°02' E 001°23'611.7
2018-Feb-15 09:30N 51°06' E 001°30'612.8
2018-Feb-15 09:00N 51°09' E 001°38'713.5
2018-Feb-15 08:30N 51°14' E 001°47'714.2
2018-Feb-15 08:00N 51°20' E 001°52'714.3
2018-Feb-15 07:31N 51°26' E 001°57'714.1
2018-Feb-15 07:00N 51°31' E 002°05'713.1
2018-Feb-15 06:30N 51°36' E 002°12'612.6
2018-Feb-15 06:00N 51°41' E 002°19'612.1
2018-Feb-15 05:31N 51°45' E 002°26'23210.3
2018-Feb-14 07:01N 55°10' E 005°28'112.4
2018-Feb-14 06:57N 55°11' E 005°29'612.3
2018-Feb-14 06:30N 55°16' E 005°34'612.3
2018-Feb-14 06:00N 55°21' E 005°38'21411.4
2018-Feb-13 11:17N 57°48' E 010°22'312.5
2018-Feb-13 11:00N 57°48' E 010°29'510.9
2018-Feb-13 10:30N 57°49' E 010°39'510.5
2018-Feb-13 10:00N 57°46' E 010°47'3 7.0
2018-Feb-13 09:30N 57°43' E 010°44'3 6.1
2018-Feb-13 09:01N 57°41' E 010°38'0 0.2
2018-Feb-13 08:24N 57°41' E 010°39'0 0.0
2018-Feb-13 07:54N 57°41' E 010°39'0 0.1
2018-Feb-13 07:30N 57°41' E 010°39'0 0.0
2018-Feb-13 06:57N 57°41' E 010°39'0 0.1
2018-Feb-13 06:30N 57°41' E 010°39'0 0.0
2018-Feb-13 06:00N 57°41' E 010°39'0 0.0
2018-Feb-13 05:30N 57°41' E 010°39'0 0.0
2018-Feb-13 04:48N 57°41' E 010°39'0 0.0
2018-Feb-13 04:30N 57°41' E 010°39'0 0.0
2018-Feb-13 03:42N 57°41' E 010°39'0 0.1
2018-Feb-13 03:30N 57°41' E 010°39'0 0.0
2018-Feb-13 02:57N 57°41' E 010°39'0 0.0
2018-Feb-13 02:21N 57°41' E 010°39'0 0.0
2018-Feb-13 02:00N 57°41' E 010°39'0 0.0
2018-Feb-13 01:30N 57°41' E 010°39'0 0.0
2018-Feb-13 01:00N 57°41' E 010°39'0 0.0
2018-Feb-13 00:30N 57°41' E 010°39'0 0.0
2018-Feb-12 23:59N 57°41' E 010°39'0 0.0
2018-Feb-12 23:30N 57°41' E 010°39'0 0.0
2018-Feb-12 23:00N 57°41' E 010°39'0 0.0
2018-Feb-12 22:30N 57°41' E 010°39'0 0.0
2018-Feb-12 22:00N 57°41' E 010°39'0 0.6
2018-Feb-12 21:30N 57°42' E 010°39'3 6.4
2018-Feb-12 21:00N 57°41' E 010°44'5 9.5
2018-Feb-12 20:30N 57°37' E 010°50'611.9
2018-Feb-12 20:00N 57°35' E 011°00'612.5
2018-Feb-12 19:30N 57°32' E 011°11'612.6
2018-Feb-12 19:00N 57°29' E 011°21'611.4
2018-Feb-12 18:30N 57°25' E 011°28'612.1
2018-Feb-12 18:00N 57°19' E 011°32'611.8
2018-Feb-12 17:30N 57°14' E 011°36'511.0
2018-Feb-12 17:00N 57°08' E 011°39'510.7
2018-Feb-12 16:30N 57°03' E 011°42'10711.0
2018-Feb-12 06:48N 55°18' E 011°03'413.3
2018-Feb-12 06:30N 55°15' E 011°05'611.5
2018-Feb-12 06:00N 55°10' E 011°01'713.1
2018-Feb-12 05:30N 55°03' E 011°00'713.7
2018-Feb-12 05:01N 54°57' E 010°55'714.6
2018-Feb-12 04:31N 54°50' E 010°50'714.3
2018-Feb-12 04:00N 54°43' E 010°47'510.7
2018-Feb-12 03:30N 54°39' E 010°51'612.0
2018-Feb-12 03:00N 54°36' E 011°01'612.2
2018-Feb-12 02:30N 54°36' E 011°11'612.8
2018-Feb-12 02:00N 54°33' E 011°21'612.3
2018-Feb-12 01:30N 54°30' E 011°31'612.2
2018-Feb-12 01:00N 54°28' E 011°40'611.8
2018-Feb-12 00:30N 54°27' E 011°50'611.8
2018-Feb-12 00:00N 54°27' E 012°00'611.7
2018-Feb-11 23:30N 54°27' E 012°11'7411.2
2018-Feb-11 16:51N 55°03' E 014°03'511.2
2018-Feb-11 16:24N 55°07' E 014°09'611.3
2018-Feb-11 15:53N 55°12' E 014°15'411.3
2018-Feb-11 15:30N 55°15' E 014°20'611.5
2018-Feb-11 15:00N 55°20' E 014°26'611.5
2018-Feb-11 14:30N 55°24' E 014°33'611.7
2018-Feb-11 13:59N 55°28' E 014°41'612.4
2018-Feb-11 13:30N 55°30' E 014°51'612.4
2018-Feb-11 12:59N 55°33' E 015°00'612.4
2018-Feb-11 12:30N 55°36' E 015°10'612.4
2018-Feb-11 12:00N 55°38' E 015°20'612.3
2018-Feb-11 11:30N 55°40' E 015°31'612.3
2018-Feb-11 11:00N 55°42' E 015°41'612.3
2018-Feb-11 10:30N 55°43' E 015°52'612.6
2018-Feb-11 10:00N 55°45' E 016°03'612.8
2018-Feb-11 09:30N 55°46' E 016°14'612.5
2018-Feb-11 09:00N 55°48' E 016°24'612.3
2018-Feb-11 08:30N 55°49' E 016°35'612.2
2018-Feb-11 08:00N 55°51' E 016°46'29112.3
2018-Feb-10 08:22N 59°31' E 022°40'512.5
2018-Feb-10 07:59N 59°33' E 022°49'1112.8
2018-Feb-10 07:08N 59°30' E 023°10'213.0
2018-Feb-10 07:00N 59°29' E 023°13'613.1
2018-Feb-10 06:30N 59°28' E 023°26'  

Dump ship's entire track history